sensor_id;sensor_type;location;lat;lon;timestamp;pressure;altitude;pressure_sealevel;temperature;humidity
47785;BME280;35233;55.686;37.848;2023-06-26T00:01:14;99676.84;;;21.59;52.64
47785;BME280;35233;55.686;37.848;2023-06-26T00:03:40;99680.41;;;21.60;53.11
47785;BME280;35233;55.686;37.848;2023-06-26T00:06:05;99685.69;;;21.61;52.89
47785;BME280;35233;55.686;37.848;2023-06-26T00:08:31;99686.53;;;21.62;52.52
47785;BME280;35233;55.686;37.848;2023-06-26T00:10:56;99677.94;;;21.57;53.43
47785;BME280;35233;55.686;37.848;2023-06-26T00:13:23;99678.78;;;21.57;53.25
47785;BME280;35233;55.686;37.848;2023-06-26T00:15:50;99684.16;;;21.57;53.28
47785;BME280;35233;55.686;37.848;2023-06-26T00:18:15;99673.53;;;21.56;53.12
47785;BME280;35233;55.686;37.848;2023-06-26T00:20:41;99679.53;;;21.59;52.82
47785;BME280;35233;55.686;37.848;2023-06-26T00:23:06;99674.41;;;21.56;53.03
47785;BME280;35233;55.686;37.848;2023-06-26T00:25:33;99673.41;;;21.57;52.78
47785;BME280;35233;55.686;37.848;2023-06-26T00:27:58;99668.25;;;21.54;52.88
47785;BME280;35233;55.686;37.848;2023-06-26T00:30:24;99666.44;;;21.55;52.45
47785;BME280;35233;55.686;37.848;2023-06-26T00:32:49;99668.16;;;21.56;53.05
47785;BME280;35233;55.686;37.848;2023-06-26T00:35:16;99674.25;;;21.58;52.95
47785;BME280;35233;55.686;37.848;2023-06-26T00:37:41;99666.19;;;21.58;53.01
47785;BME280;35233;55.686;37.848;2023-06-26T00:40:07;99658.28;;;21.56;52.77
47785;BME280;35233;55.686;37.848;2023-06-26T00:42:33;99669.75;;;21.58;52.56
47785;BME280;35233;55.686;37.848;2023-06-26T00:44:58;99669.88;;;21.57;53.14
47785;BME280;35233;55.686;37.848;2023-06-26T00:47:24;99660.19;;;21.54;53.06
47785;BME280;35233;55.686;37.848;2023-06-26T00:49:51;99663.50;;;21.58;52.67
47785;BME280;35233;55.686;37.848;2023-06-26T00:52:17;99654.19;;;21.51;53.10
47785;BME280;35233;55.686;37.848;2023-06-26T00:54:43;99664.59;;;21.55;52.53
47785;BME280;35233;55.686;37.848;2023-06-26T00:57:08;99664.59;;;21.55;52.50
47785;BME280;35233;55.686;37.848;2023-06-26T00:59:34;99671.72;;;21.56;52.86
47785;BME280;35233;55.686;37.848;2023-06-26T01:02:00;99660.94;;;21.56;52.77
47785;BME280;35233;55.686;37.848;2023-06-26T01:04:26;99663.63;;;21.56;52.44
47785;BME280;35233;55.686;37.848;2023-06-26T01:06:53;99661.91;;;21.55;52.53
47785;BME280;35233;55.686;37.848;2023-06-26T01:09:21;99661.19;;;21.53;52.51
47785;BME280;35233;55.686;37.848;2023-06-26T01:11:47;99657.75;;;21.51;52.57
47785;BME280;35233;55.686;37.848;2023-06-26T01:14:13;99659.44;;;21.52;52.53
47785;BME280;35233;55.686;37.848;2023-06-26T01:16:40;99660.19;;;21.54;52.97
47785;BME280;35233;55.686;37.848;2023-06-26T01:19:11;99665.81;;;21.51;52.89
47785;BME280;35233;55.686;37.848;2023-06-26T01:21:42;99662.25;;;21.51;52.75
47785;BME280;35233;55.686;37.848;2023-06-26T01:24:15;99656.97;;;21.49;52.93
47785;BME280;35233;55.686;37.848;2023-06-26T01:26:46;99666.66;;;21.52;52.63
47785;BME280;35233;55.686;37.848;2023-06-26T01:29:14;99664.81;;;21.52;52.86
47785;BME280;35233;55.686;37.848;2023-06-26T01:31:41;99658.72;;;21.50;52.85
47785;BME280;35233;55.686;37.848;2023-06-26T01:34:07;99661.41;;;21.50;52.82
47785;BME280;35233;55.686;37.848;2023-06-26T01:36:32;99662.34;;;21.49;52.77
47785;BME280;35233;55.686;37.848;2023-06-26T01:38:58;99659.81;;;21.47;52.55
47785;BME280;35233;55.686;37.848;2023-06-26T01:41:23;99657.97;;;21.48;52.53
47785;BME280;35233;55.686;37.848;2023-06-26T01:49:09;99662.34;;;21.49;52.53
47785;BME280;35233;55.686;37.848;2023-06-26T01:51:48;99658.94;;;21.47;52.72
47785;BME280;35233;55.686;37.848;2023-06-26T01:54:18;99665.03;;;21.49;52.63
47785;BME280;35233;55.686;37.848;2023-06-26T01:56:49;99666.13;;;21.46;52.88
47785;BME280;35233;55.686;37.848;2023-06-26T01:59:16;99672.25;;;21.48;52.67
47785;BME280;35233;55.686;37.848;2023-06-26T02:01:43;99672.16;;;21.50;52.62
47785;BME280;35233;55.686;37.848;2023-06-26T02:04:08;99670.41;;;21.49;52.89
47785;BME280;35233;55.686;37.848;2023-06-26T02:06:34;99680.22;;;21.50;52.90
47785;BME280;35233;55.686;37.848;2023-06-26T02:08:59;99669.78;;;21.45;52.74
47785;BME280;35233;55.686;37.848;2023-06-26T02:11:25;99673.97;;;21.50;52.51
47785;BME280;35233;55.686;37.848;2023-06-26T02:13:51;99681.06;;;21.51;52.93
47785;BME280;35233;55.686;37.848;2023-06-26T02:16:16;99668.19;;;21.43;52.41
47785;BME280;35233;55.686;37.848;2023-06-26T02:18:41;99675.78;;;21.49;52.63
47785;BME280;35233;55.686;37.848;2023-06-26T02:21:09;99682.78;;;21.52;52.39
47785;BME280;35233;55.686;37.848;2023-06-26T02:23:35;99686.44;;;21.51;52.38
47785;BME280;35233;55.686;37.848;2023-06-26T02:26:00;99684.84;;;21.48;52.63
47785;BME280;35233;55.686;37.848;2023-06-26T02:28:26;99678.50;;;21.49;52.36
47785;BME280;35233;55.686;37.848;2023-06-26T02:30:51;99688.28;;;21.50;52.22
47785;BME280;35233;55.686;37.848;2023-06-26T02:33:17;99682.16;;;21.48;52.67
47785;BME280;35233;55.686;37.848;2023-06-26T02:35:42;99686.31;;;21.52;52.75
47785;BME280;35233;55.686;37.848;2023-06-26T02:38:08;99674.19;;;21.46;52.41
47785;BME280;35233;55.686;37.848;2023-06-26T02:40:33;99682.25;;;21.46;52.46
47785;BME280;35233;55.686;37.848;2023-06-26T02:42:59;99686.56;;;21.49;52.72
47785;BME280;35233;55.686;37.848;2023-06-26T02:45:24;99683.84;;;21.49;52.96
47785;BME280;35233;55.686;37.848;2023-06-26T02:47:50;99676.66;;;21.50;52.41
47785;BME280;35233;55.686;37.848;2023-06-26T02:50:15;99679.25;;;21.51;52.79
47785;BME280;35233;55.686;37.848;2023-06-26T02:52:41;99678.25;;;21.52;52.25
47785;BME280;35233;55.686;37.848;2023-06-26T02:55:07;99679.16;;;21.53;52.41
47785;BME280;35233;55.686;37.848;2023-06-26T02:57:32;99669.34;;;21.52;52.53
47785;BME280;35233;55.686;37.848;2023-06-26T02:59:57;99677.94;;;21.57;52.00
47785;BME280;35233;55.686;37.848;2023-06-26T03:02:23;99680.50;;;21.58;52.56
47785;BME280;35233;55.686;37.848;2023-06-26T03:04:48;99669.03;;;21.56;52.41
47785;BME280;35233;55.686;37.848;2023-06-26T03:07:15;99683.19;;;21.58;51.94
47785;BME280;35233;55.686;37.848;2023-06-26T03:09:41;99682.84;;;21.63;52.18
47785;BME280;35233;55.686;37.848;2023-06-26T03:12:07;99677.16;;;21.67;52.36
47785;BME280;35233;55.686;37.848;2023-06-26T03:14:33;99685.63;;;21.74;51.78
47785;BME280;35233;55.686;37.848;2023-06-26T03:16:58;99676.47;;;21.77;51.48
47785;BME280;35233;55.686;37.848;2023-06-26T03:19:28;99674.16;;;21.83;51.67
47785;BME280;35233;55.686;37.848;2023-06-26T03:21:54;99672.84;;;21.89;51.15
47785;BME280;35233;55.686;37.848;2023-06-26T03:24:20;99680.59;;;21.93;51.43
47785;BME280;35233;55.686;37.848;2023-06-26T03:26:45;99677.78;;;21.95;51.23
47785;BME280;35233;55.686;37.848;2023-06-26T03:29:11;99679.16;;;22.01;51.30
47785;BME280;35233;55.686;37.848;2023-06-26T03:31:36;99680.53;;;22.06;51.14
47785;BME280;35233;55.686;37.848;2023-06-26T03:34:02;99665.22;;;22.07;50.81
47785;BME280;35233;55.686;37.848;2023-06-26T03:36:27;99676.00;;;22.07;50.87
47785;BME280;35233;55.686;37.848;2023-06-26T03:38:53;99663.84;;;22.01;51.19
47785;BME280;35233;55.686;37.848;2023-06-26T03:41:22;99672.97;;;22.11;50.68
47785;BME280;35233;55.686;37.848;2023-06-26T03:43:48;99676.59;;;22.10;50.78
47785;BME280;35233;55.686;37.848;2023-06-26T03:46:14;99675.66;;;22.11;50.78
47785;BME280;35233;55.686;37.848;2023-06-26T03:48:39;99678.13;;;22.14;50.76
47785;BME280;35233;55.686;37.848;2023-06-26T03:51:05;99674.38;;;22.17;50.87
47785;BME280;35233;55.686;37.848;2023-06-26T03:53:32;99666.16;;;22.19;50.70
47785;BME280;35233;55.686;37.848;2023-06-26T03:55:57;99666.69;;;22.24;50.58
47785;BME280;35233;55.686;37.848;2023-06-26T03:58:23;99670.72;;;22.29;50.38
47785;BME280;35233;55.686;37.848;2023-06-26T04:00:50;99674.28;;;22.30;50.20
47785;BME280;35233;55.686;37.848;2023-06-26T04:03:15;99673.69;;;22.37;50.14
47785;BME280;35233;55.686;37.848;2023-06-26T04:05:41;99669.16;;;22.38;50.06
47785;BME280;35233;55.686;37.848;2023-06-26T04:08:06;99670.88;;;22.39;49.85
47785;BME280;35233;55.686;37.848;2023-06-26T04:10:32;99664.06;;;22.46;50.13
47785;BME280;35233;55.686;37.848;2023-06-26T04:12:57;99656.84;;;22.47;49.75
47785;BME280;35233;55.686;37.848;2023-06-26T04:15:23;99665.28;;;22.53;49.56
47785;BME280;35233;55.686;37.848;2023-06-26T04:17:48;99662.59;;;22.53;49.48
47785;BME280;35233;55.686;37.848;2023-06-26T04:20:14;99654.03;;;22.59;50.00
47785;BME280;35233;55.686;37.848;2023-06-26T04:22:39;99661.88;;;22.63;49.61
47785;BME280;35233;55.686;37.848;2023-06-26T04:25:05;99664.31;;;22.66;49.31
47785;BME280;35233;55.686;37.848;2023-06-26T04:27:31;99661.63;;;22.66;49.29
47785;BME280;35233;55.686;37.848;2023-06-26T04:29:56;99660.91;;;22.64;49.56
47785;BME280;35233;55.686;37.848;2023-06-26T04:32:21;99665.53;;;22.62;49.38
47785;BME280;35233;55.686;37.848;2023-06-26T04:34:47;99664.06;;;22.69;49.43
47785;BME280;35233;55.686;37.848;2023-06-26T04:37:13;99660.03;;;22.74;49.15
47785;BME280;35233;55.686;37.848;2023-06-26T04:39:42;99661.66;;;22.77;49.15
47785;BME280;35233;55.686;37.848;2023-06-26T04:42:08;99656.16;;;22.78;49.02
47785;BME280;35233;55.686;37.848;2023-06-26T04:44:34;99655.06;;;22.81;49.07
47785;BME280;35233;55.686;37.848;2023-06-26T04:47:00;99662.75;;;22.86;49.40
47785;BME280;35233;55.686;37.848;2023-06-26T04:49:25;99644.03;;;22.84;49.30
47785;BME280;35233;55.686;37.848;2023-06-26T04:51:53;99661.31;;;22.93;49.30
47785;BME280;35233;55.686;37.848;2023-06-26T04:54:18;99653.09;;;22.94;49.33
47785;BME280;35233;55.686;37.848;2023-06-26T04:56:44;99650.16;;;22.97;49.23
47785;BME280;35233;55.686;37.848;2023-06-26T04:59:12;99644.69;;;22.99;49.03
47785;BME280;35233;55.686;37.848;2023-06-26T05:01:38;99649.69;;;23.03;48.73
47785;BME280;35233;55.686;37.848;2023-06-26T05:04:05;99637.69;;;23.08;48.78
47785;BME280;35233;55.686;37.848;2023-06-26T05:06:49;99654.59;;;23.10;48.77
47785;BME280;35233;55.686;37.848;2023-06-26T05:09:33;99648.22;;;23.11;48.73
47785;BME280;35233;55.686;37.848;2023-06-26T05:11:59;99643.56;;;23.13;48.87
47785;BME280;35233;55.686;37.848;2023-06-26T05:14:43;99652.00;;;23.19;48.81
47785;BME280;35233;55.686;37.848;2023-06-26T05:17:16;99655.31;;;23.23;48.43
47785;BME280;35233;55.686;37.848;2023-06-26T05:19:42;99658.75;;;23.25;48.57
47785;BME280;35233;55.686;37.848;2023-06-26T05:22:08;99656.91;;;23.25;48.61
47785;BME280;35233;55.686;37.848;2023-06-26T05:24:38;99658.25;;;23.31;48.41
47785;BME280;35233;55.686;37.848;2023-06-26T05:27:04;99648.31;;;23.32;48.48
47785;BME280;35233;55.686;37.848;2023-06-26T05:29:32;99647.22;;;23.34;48.53
47785;BME280;35233;55.686;37.848;2023-06-26T05:31:58;99649.31;;;23.42;48.47
47785;BME280;35233;55.686;37.848;2023-06-26T05:34:24;99645.59;;;23.43;48.47
47785;BME280;35233;55.686;37.848;2023-06-26T05:36:51;99653.56;;;23.44;48.33
47785;BME280;35233;55.686;37.848;2023-06-26T05:39:17;99651.59;;;23.46;48.22
47785;BME280;35233;55.686;37.848;2023-06-26T05:41:44;99654.19;;;23.48;48.30
47785;BME280;35233;55.686;37.848;2023-06-26T05:44:10;99651.34;;;23.49;48.23
47785;BME280;35233;55.686;37.848;2023-06-26T05:46:36;99653.09;;;23.50;48.23
47785;BME280;35233;55.686;37.848;2023-06-26T05:49:20;99652.81;;;23.54;48.33
47785;BME280;35233;55.686;37.848;2023-06-26T05:51:46;99649.03;;;23.56;48.31
47785;BME280;35233;55.686;37.848;2023-06-26T06:00:01;99651.31;;;23.61;48.37
47785;BME280;35233;55.686;37.848;2023-06-26T06:05:12;99650.34;;;23.62;48.41
47785;BME280;35233;55.686;37.848;2023-06-26T06:07:37;99652.06;;;23.63;48.50
47785;BME280;35233;55.686;37.848;2023-06-26T06:12:47;99647.25;;;23.66;48.30
47785;BME280;35233;55.686;37.848;2023-06-26T06:15:13;99640.16;;;23.65;48.23
47785;BME280;35233;55.686;37.848;2023-06-26T06:17:38;99648.75;;;23.70;48.16
47785;BME280;35233;55.686;37.848;2023-06-26T06:20:04;99642.25;;;23.73;48.19
47785;BME280;35233;55.686;37.848;2023-06-26T06:22:30;99638.84;;;23.71;48.32
47785;BME280;35233;55.686;37.848;2023-06-26T06:25:14;99641.13;;;23.76;48.25
47785;BME280;35233;55.686;37.848;2023-06-26T06:27:59;99643.72;;;23.77;48.22
47785;BME280;35233;55.686;37.848;2023-06-26T06:30:24;99641.72;;;23.79;48.35
47785;BME280;35233;55.686;37.848;2023-06-26T06:32:50;99638.06;;;23.80;48.31
47785;BME280;35233;55.686;37.848;2023-06-26T06:35:18;99633.38;;;23.82;48.24
47785;BME280;35233;55.686;37.848;2023-06-26T06:37:44;99636.56;;;23.87;48.17
47785;BME280;35233;55.686;37.848;2023-06-26T06:40:28;99637.28;;;23.89;48.09
47785;BME280;35233;55.686;37.848;2023-06-26T06:42:54;99634.44;;;23.91;47.97
47785;BME280;35233;55.686;37.848;2023-06-26T06:45:38;99628.19;;;23.90;47.97
47785;BME280;35233;55.686;37.848;2023-06-26T06:48:04;99630.63;;;23.93;48.04
47785;BME280;35233;55.686;37.848;2023-06-26T06:50:30;99628.69;;;23.95;48.09
47785;BME280;35233;55.686;37.848;2023-06-26T06:52:55;99626.72;;;23.98;47.87
47785;BME280;35233;55.686;37.848;2023-06-26T06:55:21;99622.03;;;24.00;47.76
47785;BME280;35233;55.686;37.848;2023-06-26T06:57:47;99621.06;;;24.01;47.92
47785;BME280;35233;55.686;37.848;2023-06-26T07:00:31;99620.91;;;24.02;48.00
47785;BME280;35233;55.686;37.848;2023-06-26T07:03:15;99624.34;;;24.04;47.75
47785;BME280;35233;55.686;37.848;2023-06-26T07:05:43;99626.19;;;24.04;47.88
47785;BME280;35233;55.686;37.848;2023-06-26T07:08:09;99612.69;;;24.04;47.61
47785;BME280;35233;55.686;37.848;2023-06-26T07:10:35;99617.84;;;24.07;47.69
47785;BME280;35233;55.686;37.848;2023-06-26T07:13:01;99621.84;;;24.12;47.66
47785;BME280;35233;55.686;37.848;2023-06-26T07:15:27;99613.75;;;24.12;47.43
47785;BME280;35233;55.686;37.848;2023-06-26T07:17:52;99619.00;;;24.14;47.88
47785;BME280;35233;55.686;37.848;2023-06-26T07:20:18;99621.44;;;24.17;47.62
47785;BME280;35233;55.686;37.848;2023-06-26T07:22:44;99616.06;;;24.17;47.62
47785;BME280;35233;55.686;37.848;2023-06-26T07:25:10;99612.22;;;24.20;47.59
47785;BME280;35233;55.686;37.848;2023-06-26T07:27:42;99615.66;;;24.22;47.54
47785;BME280;35233;55.686;37.848;2023-06-26T07:30:28;99605.72;;;24.22;47.24
47785;BME280;35233;55.686;37.848;2023-06-26T07:32:54;99608.94;;;24.16;47.70
47785;BME280;35233;55.686;37.848;2023-06-26T07:35:19;99609.28;;;24.23;47.72
47785;BME280;35233;55.686;37.848;2023-06-26T07:37:45;99603.34;;;24.29;47.37
47785;BME280;35233;55.686;37.848;2023-06-26T07:40:29;99606.31;;;24.26;47.61
47785;BME280;35233;55.686;37.848;2023-06-26T07:42:55;99612.59;;;24.26;47.51
47785;BME280;35233;55.686;37.848;2023-06-26T07:45:22;99597.50;;;24.24;47.25
47785;BME280;35233;55.686;37.848;2023-06-26T07:48:07;99608.69;;;24.19;47.84
47785;BME280;35233;55.686;37.848;2023-06-26T07:50:34;99597.78;;;24.21;47.67
47785;BME280;35233;55.686;37.848;2023-06-26T07:52:59;99606.31;;;24.26;47.75
47785;BME280;35233;55.686;37.848;2023-06-26T07:55:25;99597.28;;;24.36;47.26
47785;BME280;35233;55.686;37.848;2023-06-26T07:57:52;99597.56;;;24.33;47.47
47785;BME280;35233;55.686;37.848;2023-06-26T08:00:17;99596.81;;;24.31;47.43
47785;BME280;35233;55.686;37.848;2023-06-26T08:02:43;99594.09;;;24.43;47.37
47785;BME280;35233;55.686;37.848;2023-06-26T08:05:27;99590.78;;;24.39;47.52
47785;BME280;35233;55.686;37.848;2023-06-26T08:07:52;99585.31;;;24.29;47.82
47785;BME280;35233;55.686;37.848;2023-06-26T08:10:18;99589.47;;;24.33;47.96
47785;BME280;35233;55.686;37.848;2023-06-26T08:12:43;99584.31;;;24.30;47.74
47785;BME280;35233;55.686;37.848;2023-06-26T08:15:27;99573.41;;;24.32;47.90
47785;BME280;35233;55.686;37.848;2023-06-26T08:17:53;99579.84;;;24.40;47.41
47785;BME280;35233;55.686;37.848;2023-06-26T08:20:37;99580.34;;;24.34;47.80
47785;BME280;35233;55.686;37.848;2023-06-26T08:23:04;99570.09;;;24.28;47.65
47785;BME280;35233;55.686;37.848;2023-06-26T08:25:48;99590.09;;;24.26;47.54
47785;BME280;35233;55.686;37.848;2023-06-26T08:28:13;99583.59;;;24.28;47.91
47785;BME280;35233;55.686;37.848;2023-06-26T08:30:39;99574.53;;;24.29;47.66
47785;BME280;35233;55.686;37.848;2023-06-26T08:33:23;99583.00;;;24.25;47.75
47785;BME280;35233;55.686;37.848;2023-06-26T08:35:50;99588.41;;;24.25;47.78
47785;BME280;35233;55.686;37.848;2023-06-26T08:38:15;99584.97;;;24.23;47.67
47785;BME280;35233;55.686;37.848;2023-06-26T08:40:42;99593.53;;;24.28;48.07
47785;BME280;35233;55.686;37.848;2023-06-26T08:43:08;99597.81;;;24.30;47.63
47785;BME280;35233;55.686;37.848;2023-06-26T08:45:33;99598.41;;;24.34;47.50
47785;BME280;35233;55.686;37.848;2023-06-26T08:48:00;99596.28;;;24.37;47.46
47785;BME280;35233;55.686;37.848;2023-06-26T08:50:30;99585.75;;;24.34;47.47
47785;BME280;35233;55.686;37.848;2023-06-26T08:59:24;99581.66;;;24.40;47.49
47785;BME280;35233;55.686;37.848;2023-06-26T09:01:50;99584.38;;;24.40;47.60
47785;BME280;35233;55.686;37.848;2023-06-26T09:04:34;99575.41;;;24.39;47.49
47785;BME280;35233;55.686;37.848;2023-06-26T09:07:00;99585.88;;;24.44;47.80
47785;BME280;35233;55.686;37.848;2023-06-26T09:09:25;99571.38;;;24.45;47.47
47785;BME280;35233;55.686;37.848;2023-06-26T09:17:24;99584.75;;;24.47;47.57
47785;BME280;35233;55.686;37.848;2023-06-26T09:19:51;99587.03;;;24.51;47.51
47785;BME280;35233;55.686;37.848;2023-06-26T09:22:40;99584.91;;;24.55;47.38
47785;BME280;35233;55.686;37.848;2023-06-26T09:25:06;99580.13;;;24.58;46.93
47785;BME280;35233;55.686;37.848;2023-06-26T09:27:32;99581.25;;;24.56;47.06
47785;BME280;35233;55.686;37.848;2023-06-26T09:29:58;99572.56;;;24.52;47.27
47785;BME280;35233;55.686;37.848;2023-06-26T09:32:42;99574.09;;;24.55;47.28
47785;BME280;35233;55.686;37.848;2023-06-26T09:35:27;99579.66;;;24.53;47.08
47785;BME280;35233;55.686;37.848;2023-06-26T09:37:52;99570.72;;;24.53;47.73
47785;BME280;35233;55.686;37.848;2023-06-26T09:40:18;99570.56;;;24.54;47.46
47785;BME280;35233;55.686;37.848;2023-06-26T09:42:43;99557.91;;;24.55;47.09
47785;BME280;35233;55.686;37.848;2023-06-26T09:45:18;99566.34;;;24.61;47.03
47785;BME280;35233;55.686;37.848;2023-06-26T09:47:44;99559.09;;;24.62;46.96
47785;BME280;35233;55.686;37.848;2023-06-26T09:50:21;99559.53;;;24.67;46.68
47785;BME280;35233;55.686;37.848;2023-06-26T09:52:47;99559.66;;;24.66;47.13
47785;BME280;35233;55.686;37.848;2023-06-26T09:55:13;99563.66;;;24.71;47.14
47785;BME280;35233;55.686;37.848;2023-06-26T09:57:39;99560.13;;;24.71;47.09
47785;BME280;35233;55.686;37.848;2023-06-26T10:00:06;99556.56;;;24.70;47.32
47785;BME280;35233;55.686;37.848;2023-06-26T10:02:33;99556.56;;;24.70;47.40
47785;BME280;35233;55.686;37.848;2023-06-26T10:04:59;99556.41;;;24.72;46.93
47785;BME280;35233;55.686;37.848;2023-06-26T10:07:25;99553.44;;;24.75;47.18
47785;BME280;35233;55.686;37.848;2023-06-26T10:09:52;99545.34;;;24.75;46.86
47785;BME280;35233;55.686;37.848;2023-06-26T10:12:28;99542.97;;;24.81;46.98
47785;BME280;35233;55.686;37.848;2023-06-26T10:14:56;99551.50;;;24.87;46.89
47785;BME280;35233;55.686;37.848;2023-06-26T10:17:24;99551.00;;;25.02;46.77
47785;BME280;35233;55.686;37.848;2023-06-26T10:19:50;99551.28;;;25.09;46.70
47785;BME280;35233;55.686;37.848;2023-06-26T10:22:20;99545.59;;;25.12;46.38
47785;BME280;35233;55.686;37.848;2023-06-26T10:24:48;99552.13;;;25.10;47.02
47785;BME280;35233;55.686;37.848;2023-06-26T10:27:17;99548.44;;;25.11;46.33
47785;BME280;35233;55.686;37.848;2023-06-26T10:30:03;99543.53;;;25.25;46.37
47785;BME280;35233;55.686;37.848;2023-06-26T10:32:30;99539.09;;;25.24;46.42
47785;BME280;35233;55.686;37.848;2023-06-26T10:34:56;99533.00;;;25.22;46.54
47785;BME280;35233;55.686;37.848;2023-06-26T10:37:44;99531.88;;;25.25;46.21
47785;BME280;35233;55.686;37.848;2023-06-26T10:43:07;99529.44;;;25.32;46.08
47785;BME280;35233;55.686;37.848;2023-06-26T10:45:37;99519.47;;;25.32;46.22
47785;BME280;35233;55.686;37.848;2023-06-26T10:48:07;99521.34;;;25.32;46.66
47785;BME280;35233;55.686;37.848;2023-06-26T10:50:33;99522.19;;;25.32;46.17
47785;BME280;35233;55.686;37.848;2023-06-26T10:53:15;99518.47;;;25.33;46.21
47785;BME280;35233;55.686;37.848;2023-06-26T10:56:01;99512.38;;;25.31;46.47
47785;BME280;35233;55.686;37.848;2023-06-26T11:06:19;99507.22;;;25.18;47.01
47785;BME280;35233;55.686;37.848;2023-06-26T11:14:23;99497.41;;;25.27;46.13
47785;BME280;35233;55.686;37.848;2023-06-26T11:16:50;99503.25;;;25.32;46.32
47785;BME280;35233;55.686;37.848;2023-06-26T11:19:17;99503.09;;;25.34;46.10
47785;BME280;35233;55.686;37.848;2023-06-26T11:22:02;99500.97;;;25.27;46.75
47785;BME280;35233;55.686;37.848;2023-06-26T11:24:29;99488.00;;;25.21;46.32
47785;BME280;35233;55.686;37.848;2023-06-26T11:27:13;99493.56;;;25.29;46.39
47785;BME280;35233;55.686;37.848;2023-06-26T11:29:47;99500.84;;;25.39;46.20
47785;BME280;35233;55.686;37.848;2023-06-26T11:32:13;99500.56;;;25.32;46.27
47785;BME280;35233;55.686;37.848;2023-06-26T11:34:38;99494.59;;;25.28;46.75
47785;BME280;35233;55.686;37.848;2023-06-26T11:37:04;99497.13;;;25.30;46.52
47785;BME280;35233;55.686;37.848;2023-06-26T11:39:30;99496.16;;;25.31;46.33
47785;BME280;35233;55.686;37.848;2023-06-26T11:41:56;99485.31;;;25.41;46.09
47785;BME280;35233;55.686;37.848;2023-06-26T11:44:21;99489.31;;;25.46;46.18
47785;BME280;35233;55.686;37.848;2023-06-26T11:46:47;99485.59;;;25.47;45.99
47785;BME280;35233;55.686;37.848;2023-06-26T11:49:16;99487.88;;;25.52;46.01
47785;BME280;35233;55.686;37.848;2023-06-26T11:51:41;99484.63;;;25.48;46.19
47785;BME280;35233;55.686;37.848;2023-06-26T11:54:08;99484.19;;;25.43;46.12
47785;BME280;35233;55.686;37.848;2023-06-26T11:56:33;99484.03;;;25.45;45.92
47785;BME280;35233;55.686;37.848;2023-06-26T11:59:00;99473.22;;;25.45;45.86
47785;BME280;35233;55.686;37.848;2023-06-26T12:04:02;99469.25;;;25.49;46.13
47785;BME280;35233;55.686;37.848;2023-06-26T12:06:29;99470.94;;;25.60;46.06
47785;BME280;35233;55.686;37.848;2023-06-26T12:08:56;99469.22;;;25.59;46.20
47785;BME280;35233;55.686;37.848;2023-06-26T12:11:23;99465.09;;;25.64;45.90
47785;BME280;35233;55.686;37.848;2023-06-26T12:16:55;99462.97;;;25.58;45.61
47785;BME280;35233;55.686;37.848;2023-06-26T12:19:25;99460.41;;;25.57;45.42
47785;BME280;35233;55.686;37.848;2023-06-26T12:21:53;99459.41;;;25.58;46.12
47785;BME280;35233;55.686;37.848;2023-06-26T12:24:22;99461.28;;;25.57;45.79
47785;BME280;35233;55.686;37.848;2023-06-26T12:29:40;99455.56;;;25.60;46.07
47785;BME280;35233;55.686;37.848;2023-06-26T12:32:10;99443.31;;;25.56;45.82
47785;BME280;35233;55.686;37.848;2023-06-26T12:34:37;99438.63;;;25.58;45.75
47785;BME280;35233;55.686;37.848;2023-06-26T12:37:10;99449.28;;;25.60;45.99
47785;BME280;35233;55.686;37.848;2023-06-26T12:39:56;99442.19;;;25.59;46.02
47785;BME280;35233;55.686;37.848;2023-06-26T12:42:24;99452.00;;;25.69;45.35
47785;BME280;35233;55.686;37.848;2023-06-26T12:44:51;99443.41;;;25.74;45.25
47785;BME280;35233;55.686;37.848;2023-06-26T12:47:19;99435.03;;;25.87;45.20
47785;BME280;35233;55.686;37.848;2023-06-26T12:49:49;99437.16;;;25.93;44.77
47785;BME280;35233;55.686;37.848;2023-06-26T12:52:15;99436.44;;;25.91;44.57
47785;BME280;35233;55.686;37.848;2023-06-26T12:54:42;99420.97;;;25.83;44.93
47785;BME280;35233;55.686;37.848;2023-06-26T12:57:09;99418.50;;;25.90;44.62
47785;BME280;35233;55.686;37.848;2023-06-26T12:59:38;99421.19;;;26.00;45.00
47785;BME280;35233;55.686;37.848;2023-06-26T13:02:04;99428.69;;;26.15;44.67
47785;BME280;35233;55.686;37.848;2023-06-26T13:04:30;99420.88;;;26.12;44.32
47785;BME280;35233;55.686;37.848;2023-06-26T13:06:56;99424.22;;;26.24;44.28
47785;BME280;35233;55.686;37.848;2023-06-26T13:09:25;99423.94;;;26.27;44.32
47785;BME280;35233;55.686;37.848;2023-06-26T13:11:52;99425.19;;;26.33;44.12
47785;BME280;35233;55.686;37.848;2023-06-26T13:14:18;99424.00;;;26.35;44.22
47785;BME280;35233;55.686;37.848;2023-06-26T13:16:43;99421.41;;;26.43;44.15
47785;BME280;35233;55.686;37.848;2023-06-26T13:19:09;99411.16;;;26.47;44.06
47785;BME280;35233;55.686;37.848;2023-06-26T13:21:35;99412.81;;;26.58;43.74
47785;BME280;35233;55.686;37.848;2023-06-26T13:24:01;99411.88;;;26.67;43.39
47785;BME280;35233;55.686;37.848;2023-06-26T13:26:45;99400.31;;;26.75;43.75
47785;BME280;35233;55.686;37.848;2023-06-26T13:29:29;99402.44;;;26.53;43.65
47785;BME280;35233;55.686;37.848;2023-06-26T13:31:55;99405.53;;;26.58;43.68
47785;BME280;35233;55.686;37.848;2023-06-26T13:34:40;99395.19;;;26.90;42.95
47785;BME280;35233;55.686;37.848;2023-06-26T13:37:06;99392.13;;;27.02;43.05
47785;BME280;35233;55.686;37.848;2023-06-26T13:39:32;99394.56;;;27.14;43.41
47785;BME280;35233;55.686;37.848;2023-06-26T13:41:57;99398.03;;;27.16;43.21
47785;BME280;35233;55.686;37.848;2023-06-26T13:44:23;99396.69;;;27.20;42.88
47785;BME280;35233;55.686;37.848;2023-06-26T13:46:48;99384.75;;;27.30;42.64
47785;BME280;35233;55.686;37.848;2023-06-26T13:49:13;99391.78;;;27.41;42.71